Time;durP1;ratioP1;P1;durP2;ratioP2;P2;SDS_P1;SDS_P2;PMS_P1;PMS_P2;Temp;Humidity;BMP_temperature;BMP_pressure;BME280_temperature;BME280_humidity;BME280_pressure;Samples;Min_cycle;Max_cycle;Signal;HPM_P1;HPM_P2
2022/05/01 00:00:48;;;;;;;;;;;;;;;;;;4728573;30;19976;-83
2022/05/01 00:03:30;;;;;;;;;;;;;;;;;;4708874;30;19934;-83
2022/05/01 00:05:57;;;;;;;;;;;;;;;;;;4726091;30;19937;-83
2022/05/01 00:08:23;;;;;;;;;;;;;;;;;;4726683;30;20322;-83
2022/05/01 00:10:49;;;;;;;;;;;;;;;;;;4716141;30;20052;-82
2022/05/01 00:13:15;;;;;;;;;;;;;;;;;;4724942;30;19934;-83
2022/05/01 00:15:42;;;;;;;;;;;;;;;;;;4707423;30;19946;-83
2022/05/01 00:18:09;;;;;;;;;;;;;;;;;;4705537;30;19948;-83
2022/05/01 00:20:35;;;;;;;;;;;;;;;;;;4711665;30;19974;-84
2022/05/01 00:23:02;;;;;;;;;;;;;;;;;;4708746;30;19934;-83
2022/05/01 00:25:28;;;;;;;;;;;;;;;;;;4708462;30;19943;-83
2022/05/01 00:27:54;;;;;;;;;;;;;;;;;;4714008;30;20360;-83
2022/05/01 00:30:20;;;;;;;;;;;;;;;;;;4706333;30;19934;-83
2022/05/01 00:38:17;;;;;;;;;;;;;;;;;;4724519;30;20093;-83
2022/05/01 00:40:43;;;;;;;;;;;;;;;;;;4729582;30;19933;-83
2022/05/01 00:43:09;;;;;;;;;;;;;;;;;;4739274;29;19925;-83
2022/05/01 00:45:35;;;;;;;;;;;;;;;;;;4728939;30;19933;-83
2022/05/01 00:48:01;;;;;;;;;;;;;;;;;;4722710;30;19936;-82
2022/05/01 00:50:27;;;;;;;;;;;;;;;;;;4729295;30;20170;-83
2022/05/01 00:52:54;;;;;;;;;;;;;;;;;;4715429;30;19977;-83
2022/05/01 00:55:20;;;;;;;;;;;;;;;;;;4722639;30;19938;-83
2022/05/01 00:57:46;;;;;;;;;;;;;;;;;;4709991;30;20032;-83
2022/05/01 01:00:12;;;;;;;;;;;;;;;;;;4720297;30;20366;-83
2022/05/01 01:02:38;;;;;;;;;;;;;;;;;;4726547;30;19941;-83
2022/05/01 01:05:05;;;;;;;;;;;;;;;;;;4726165;30;19930;-83
2022/05/01 01:07:38;;;;;;;;;;;;;;;;;;4713468;30;19936;-83
2022/05/01 01:10:04;;;;;;;;;;;;;;;;;;4713302;30;19965;-83
2022/05/01 01:15:18;;;;;;;;;;;;;;;;;;4723603;30;19942;-83
2022/05/01 01:17:46;;;;;;;;;;;;;;;;;;4730194;30;19930;-83
2022/05/01 01:20:12;;;;;;;;;;;;;;;;;;4727063;30;19979;-83
2022/05/01 01:22:39;;;;;;;;;;;;;;;;;;4728476;30;19925;-83
2022/05/01 01:25:05;;;;;;;;;;;;;;;;;;4739272;30;19953;-83
2022/05/01 01:27:31;;;;;;;;;;;;;;;;;;4727943;30;19930;-83
2022/05/01 01:32:42;;;;;;;;;;;;;;;;;;4729493;30;19930;-83
2022/05/01 01:35:08;;;;;;;;;;;;;;;;;;4726287;30;19934;-83
2022/05/01 01:37:34;;;;;;;;;;;;;;;;;;4712251;30;19951;-83
2022/05/01 01:40:00;;;;;;;;;;;;;;;;;;4727776;30;19926;-83
2022/05/01 01:42:26;;;;;;;;;;;;;;;;;;4743890;30;19934;-83
2022/05/01 01:44:52;;;;;;;;;;;;;;;;;;4748317;30;19932;-83
2022/05/01 01:47:18;;;;;;;;;;;;;;;;;;4742360;30;20005;-83
2022/05/01 01:49:44;;;;;;;;;;;;;;;;;;4727962;30;19930;-83
2022/05/01 01:52:10;;;;;;;;;;;;;;;;;;4713344;30;19935;-83
2022/05/01 01:54:36;;;;;;;;;;;;;;;;;;4728114;30;19936;-83
2022/05/01 01:57:02;;;;;;;;;;;;;;;;;;4725302;30;19976;-83
2022/05/01 01:59:27;;;;;;;;;;;;;;;;;;4719533;30;19930;-83
2022/05/01 02:01:54;;;;;;;;;;;;;;;;;;4715122;30;20342;-83
2022/05/01 02:04:20;;;;;;;;;;;;;;;;;;4720647;30;19941;-83
2022/05/01 02:06:45;;;;;;;;;;;;;;;;;;4725531;30;19933;-83
2022/05/01 02:09:12;;;;;;;;;;;;;;;;;;4707093;30;20670;-83
2022/05/01 02:11:38;;;;;;;;;;;;;;;;;;4725464;30;19969;-83
2022/05/01 02:14:05;;;;;;;;;;;;;;;;;;4725114;30;20679;-83
2022/05/01 02:16:31;;;;;;;;;;;;;;;;;;4724838;30;19949;-83
2022/05/01 02:18:57;;;;;;;;;;;;;;;;;;4727371;30;19930;-83
2022/05/01 02:21:35;;;;;;;;;;;;;;;;;;4725453;30;20406;-83
2022/05/01 02:24:01;;;;;;;;;;;;;;;;;;4707443;30;19978;-83
2022/05/01 02:26:29;;;;;;;;;;;;;;;;;;4714237;30;20080;-83
2022/05/01 02:28:55;;;;;;;;;;;;;;;;;;4729663;30;19977;-83
2022/05/01 02:31:22;;;;;;;;;;;;;;;;;;4725310;30;20021;-83
2022/05/01 02:33:48;;;;;;;;;;;;;;;;;;4725938;30;20370;-83
2022/05/01 02:36:15;;;;;;;;;;;;;;;;;;4723587;30;19933;-82
2022/05/01 02:38:41;;;;;;;;;;;;;;;;;;4729164;30;19976;-83
2022/05/01 02:41:07;;;;;;;;;;;;;;;;;;4722255;29;20009;-83
2022/05/01 02:43:33;;;;;;;;;;;;;;;;;;4727632;30;19926;-83
2022/05/01 02:46:00;;;;;;;;;;;;;;;;;;4724826;29;19940;-83
2022/05/01 02:48:27;;;;;;;;;;;;;;;;;;4729450;30;19961;-83
2022/05/01 02:50:53;;;;;;;;;;;;;;;;;;4714713;30;19937;-83
2022/05/01 02:53:19;;;;;;;;;;;;;;;;;;4708868;30;19972;-83
2022/05/01 02:55:45;;;;;;;;;;;;;;;;;;4743732;30;19988;-83
2022/05/01 02:58:11;;;;;;;;;;;;;;;;;;4736597;29;19938;-83
2022/05/01 03:00:37;;;;;;;;;;;;;;;;;;4743296;30;19925;-83
2022/05/01 03:03:03;;;;;;;;;;;;;;;;;;4710065;30;19963;-83
2022/05/01 03:05:30;;;;;;;;;;;;;;;;;;4726712;30;20584;-83
2022/05/01 03:07:56;;;;;;;;;;;;;;;;;;4728430;30;19983;-83
2022/05/01 03:10:22;;;;;;;;;;;;;;;;;;4707815;30;20031;-83
2022/05/01 03:12:48;;;;;;;;;;;;;;;;;;4727633;30;19934;-83
2022/05/01 03:15:14;;;;;;;;;;;;;;;;;;4738904;30;19926;-83
2022/05/01 03:23:09;;;;;;;;;;;;;;;;;;4726442;30;19926;-83
2022/05/01 03:25:35;;;;;;;;;;;;;;;;;;4728583;30;23406;-83
2022/05/01 03:28:02;;;;;;;;;;;;;;;;;;4726657;30;19938;-83
2022/05/01 03:30:28;;;;;;;;;;;;;;;;;;4712775;30;19961;-83
2022/05/01 03:32:54;;;;;;;;;;;;;;;;;;4714529;30;20063;-83
2022/05/01 03:35:20;;;;;;;;;;;;;;;;;;4705101;30;19934;-83
2022/05/01 03:37:46;;;;;;;;;;;;;;;;;;4725043;30;20298;-83
2022/05/01 03:40:12;;;;;;;;;;;;;;;;;;4722245;30;19961;-83
2022/05/01 03:42:38;;;;;;;;;;;;;;;;;;4728718;30;19929;-83
2022/05/01 03:45:04;;;;;;;;;;;;;;;;;;4722527;30;19932;-83
2022/05/01 03:47:32;;;;;;;;;;;;;;;;;;4726176;30;20032;-83
2022/05/01 03:49:58;;;;;;;;;;;;;;;;;;4724470;30;19929;-83
2022/05/01 03:52:24;;;;;;;;;;;;;;;;;;4716704;30;19933;-83
2022/05/01 03:54:50;;;;;;;;;;;;;;;;;;4712273;30;19980;-83
2022/05/01 03:57:16;;;;;;;;;;;;;;;;;;4721135;30;19933;-83
2022/05/01 03:59:42;;;;;;;;;;;;;;;;;;4714130;30;19937;-82
2022/05/01 04:02:08;;;;;;;;;;;;;;;;;;4708960;30;19930;-83
2022/05/01 04:04:35;;;;;;;;;;;;;;;;;;4711554;30;19926;-83
2022/05/01 04:07:01;;;;;;;;;;;;;;;;;;4719300;30;19934;-83
2022/05/01 04:09:28;;;;;;;;;;;;;;;;;;4709982;30;20023;-83
2022/05/01 04:11:54;;;;;;;;;;;;;;;;;;4712253;30;20018;-83
2022/05/01 04:14:20;;;;;;;;;;;;;;;;;;4723615;30;20008;-82
2022/05/01 04:16:46;;;;;;;;;;;;;;;;;;4710406;30;20373;-83
2022/05/01 04:19:13;;;;;;;;;;;;;;;;;;4720345;30;19937;-83
2022/05/01 04:21:39;;;;;;;;;;;;;;;;;;4724615;30;19953;-83
2022/05/01 04:24:05;;;;;;;;;;;;;;;;;;4723203;30;19926;-83
2022/05/01 04:26:31;;;;;;;;;;;;;;;;;;4725854;30;20784;-83
2022/05/01 04:31:42;;;;;;;;;;;;;;;;;;4725319;30;20030;-83
2022/05/01 04:34:08;;;;;;;;;;;;;;;;;;4721023;30;20241;-83
2022/05/01 04:36:34;;;;;;;;;;;;;;;;;;4724977;30;19952;-83
2022/05/01 04:39:00;;;;;;;;;;;;;;;;;;4722730;30;20054;-83
2022/05/01 04:41:26;;;;;;;;;;;;;;;;;;4725451;30;20378;-83
2022/05/01 04:43:52;;;;;;;;;;;;;;;;;;4711318;30;19926;-82
2022/05/01 04:46:19;;;;;;;;;;;;;;;;;;4708597;29;20606;-83
2022/05/01 04:48:45;;;;;;;;;;;;;;;;;;4712377;30;19941;-83
2022/05/01 04:51:12;;;;;;;;;;;;;;;;;;4719851;30;19934;-83
2022/05/01 04:53:38;;;;;;;;;;;;;;;;;;4726191;30;20042;-83
2022/05/01 04:58:49;;;;;;;;;;;;;;;;;;4728133;30;20017;-83
2022/05/01 05:01:15;;;;;;;;;;;;;;;;;;4720846;30;20451;-83
2022/05/01 05:03:41;;;;;;;;;;;;;;;;;;4724288;30;19934;-83
2022/05/01 05:06:07;;;;;;;;;;;;;;;;;;4721615;29;19973;-83
2022/05/01 05:11:21;;;;;;;;;;;;;;;;;;4720796;30;19930;-83
2022/05/01 05:13:47;;;;;;;;;;;;;;;;;;4726465;30;20022;-83
2022/05/01 05:16:13;;;;;;;;;;;;;;;;;;4718419;30;20390;-83
2022/05/01 05:18:40;;;;;;;;;;;;;;;;;;4722712;30;20026;-83
2022/05/01 05:21:05;;;;;;;;;;;;;;;;;;4722907;30;19925;-83
2022/05/01 05:23:31;;;;;;;;;;;;;;;;;;4727083;30;20386;-83
2022/05/01 05:25:57;;;;;;;;;;;;;;;;;;4724187;30;20529;-83
2022/05/01 05:28:23;;;;;;;;;;;;;;;;;;4711762;30;20850;-83
2022/05/01 05:30:49;;;;;;;;;;;;;;;;;;4721049;30;19944;-83
2022/05/01 05:33:15;;;;;;;;;;;;;;;;;;4724946;30;19930;-83
2022/05/01 05:35:41;;;;;;;;;;;;;;;;;;4728468;30;19945;-83
2022/05/01 05:38:07;;;;;;;;;;;;;;;;;;4720547;30;20415;-83
2022/05/01 05:40:33;;;;;;;;;;;;;;;;;;4739510;30;19937;-83
2022/05/01 05:42:59;;;;;;;;;;;;;;;;;;4726859;30;19926;-83
2022/05/01 05:45:25;;;;;;;;;;;;;;;;;;4713858;30;19946;-83
2022/05/01 05:47:51;;;;;;;;;;;;;;;;;;4728883;30;20021;-83
2022/05/01 05:50:17;;;;;;;;;;;;;;;;;;4741596;29;22774;-83
2022/05/01 05:52:46;;;;;;;;;;;;;;;;;;4732026;30;19933;-83
2022/05/01 05:55:11;;;;;;;;;;;;;;;;;;4726465;30;19938;-83
2022/05/01 05:57:37;;;;;;;;;;;;;;;;;;4749889;30;19933;-83
2022/05/01 06:00:03;;;;;;;;;;;;;;;;;;4735891;30;19934;-83
2022/05/01 06:02:29;;;;;;;;;;;;;;;;;;4743824;30;19941;-83
2022/05/01 06:04:55;;;;;;;;;;;;;;;;;;4741586;29;19926;-83
2022/05/01 06:07:21;;;;;;;;;;;;;;;;;;4710998;30;19965;-83
2022/05/01 06:09:47;;;;;;;;;;;;;;;;;;4728191;29;19938;-83
2022/05/01 06:12:13;;;;;;;;;;;;;;;;;;4722309;30;19941;-83
2022/05/01 06:14:39;;;;;;;;;;;;;;;;;;4724650;30;20294;-83
2022/05/01 06:17:05;;;;;;;;;;;;;;;;;;4719611;29;19933;-83
2022/05/01 06:19:31;;;;;;;;;;;;;;;;;;4721542;30;20382;-83
2022/05/01 06:21:57;;;;;;;;;;;;;;;;;;4720182;30;20547;-83
2022/05/01 06:24:26;;;;;;;;;;;;;;;;;;4725034;30;20327;-83
2022/05/01 06:26:52;;;;;;;;;;;;;;;;;;4723941;30;19934;-83
2022/05/01 06:29:18;;;;;;;;;;;;;;;;;;4718805;30;19944;-83
2022/05/01 06:31:46;;;;;;;;;;;;;;;;;;4722004;30;20682;-83
2022/05/01 06:34:12;;;;;;;;;;;;;;;;;;4706025;30;20384;-83
2022/05/01 06:36:38;;;;;;;;;;;;;;;;;;4739348;29;19926;-83
2022/05/01 06:39:04;;;;;;;;;;;;;;;;;;4724237;30;19926;-83
2022/05/01 06:41:30;;;;;;;;;;;;;;;;;;4710818;30;20879;-83
2022/05/01 06:43:59;;;;;;;;;;;;;;;;;;4728095;30;20317;-83
2022/05/01 06:46:25;;;;;;;;;;;;;;;;;;4713022;30;19926;-83
2022/05/01 06:48:51;;;;;;;;;;;;;;;;;;4728239;30;20100;-83
2022/05/01 06:51:17;;;;;;;;;;;;;;;;;;4724143;30;19933;-83
2022/05/01 06:53:42;;;;;;;;;;;;;;;;;;4713470;30;19938;-83
2022/05/01 06:56:08;;;;;;;;;;;;;;;;;;4722564;30;19938;-83
2022/05/01 06:58:35;;;;;;;;;;;;;;;;;;4712105;30;19937;-83
2022/05/01 07:01:01;;;;;;;;;;;;;;;;;;4722980;30;19934;-83
2022/05/01 07:03:27;;;;;;;;;;;;;;;;;;4726346;30;20037;-83
2022/05/01 07:05:53;;;;;;;;;;;;;;;;;;4709756;30;20395;-83
2022/05/01 07:08:20;;;;;;;;;;;;;;;;;;4721998;30;20051;-83
2022/05/01 07:10:46;;;;;;;;;;;;;;;;;;4728233;30;19934;-83
2022/05/01 07:13:11;;;;;;;;;;;;;;;;;;4721302;30;19934;-83
2022/05/01 07:15:37;;;;;;;;;;;;;;;;;;4724014;30;19926;-83
2022/05/01 07:18:03;;;;;;;;;;;;;;;;;;4708803;30;20283;-83
2022/05/01 07:20:33;;;;;;;;;;;;;;;;;;4725814;29;19940;-83
2022/05/01 07:22:59;;;;;;;;;;;;;;;;;;4723083;30;19930;-83
2022/05/01 07:25:25;;;;;;;;;;;;;;;;;;4715215;30;19925;-83
2022/05/01 07:27:51;;;;;;;;;;;;;;;;;;4727508;30;19930;-83
2022/05/01 07:30:17;;;;;;;;;;;;;;;;;;4709221;30;19934;-83
2022/05/01 07:32:45;;;;;;;;;;;;;;;;;;4728870;30;20447;-83
2022/05/01 07:35:11;;;;;;;;;;;;;;;;;;4708871;30;20275;-84
2022/05/01 07:37:37;;;;;;;;;;;;;;;;;;4723843;30;20316;-83
2022/05/01 07:40:06;;;;;;;;;;;;;;;;;;4708084;30;19930;-83
2022/05/01 07:42:32;;;;;;;;;;;;;;;;;;4726441;30;20374;-83
2022/05/01 07:44:58;;;;;;;;;;;;;;;;;;4711191;30;19979;-83
2022/05/01 07:47:24;;;;;;;;;;;;;;;;;;4728802;30;20382;-83
2022/05/01 07:49:50;;;;;;;;;;;;;;;;;;4730517;29;20337;-83
2022/05/01 07:52:19;;;;;;;;;;;;;;;;;;4724615;30;19933;-83
2022/05/01 07:57:34;;;;;;;;;;;;;;;;;;4732147;30;19930;-83
2022/05/01 08:00:00;;;;;;;;;;;;;;;;;;4724580;30;19934;-83
2022/05/01 08:02:26;;;;;;;;;;;;;;;;;;4722542;30;19976;-83
2022/05/01 08:04:52;;;;;;;;;;;;;;;;;;4716351;30;19933;-83
2022/05/01 08:07:18;;;;;;;;;;;;;;;;;;4723750;30;25033;-83
2022/05/01 08:09:44;;;;;;;;;;;;;;;;;;4715496;30;19933;-83
2022/05/01 08:12:10;;;;;;;;;;;;;;;;;;4710867;30;19929;-84
2022/05/01 08:14:38;;;;;;;;;;;;;;;;;;4715156;30;19926;-83
2022/05/01 08:17:04;;;;;;;;;;;;;;;;;;4721168;30;19926;-83
2022/05/01 08:22:15;;;;;;;;;;;;;;;;;;4724516;30;19933;-83
2022/05/01 08:24:41;;;;;;;;;;;;;;;;;;4731922;30;19987;-83
2022/05/01 08:27:07;;;;;;;;;;;;;;;;;;4725528;30;19945;-83
2022/05/01 08:29:38;;;;;;;;;;;;;;;;;;4713711;30;19930;-83
2022/05/01 08:32:04;;;;;;;;;;;;;;;;;;4712896;30;19933;-83
2022/05/01 08:34:33;;;;;;;;;;;;;;;;;;4727565;30;19930;-83
2022/05/01 08:36:59;;;;;;;;;;;;;;;;;;4724439;29;19983;-83
2022/05/01 08:39:25;;;;;;;;;;;;;;;;;;4729808;30;20792;-83
2022/05/01 08:41:51;;;;;;;;;;;;;;;;;;4725798;30;19938;-83
2022/05/01 08:44:17;;;;;;;;;;;;;;;;;;4727914;30;19934;-83
2022/05/01 08:46:46;;;;;;;;;;;;;;;;;;4730169;30;19929;-83
2022/05/01 08:49:15;;;;;;;;;;;;;;;;;;4701932;30;19937;-83
2022/05/01 08:51:41;;;;;;;;;;;;;;;;;;4740933;30;19987;-83
2022/05/01 08:54:10;;;;;;;;;;;;;;;;;;4724267;29;20327;-83
2022/05/01 08:56:36;;;;;;;;;;;;;;;;;;4722577;30;19938;-83
2022/05/01 08:59:02;;;;;;;;;;;;;;;;;;4724424;30;19933;-83
2022/05/01 09:01:28;;;;;;;;;;;;;;;;;;4721618;30;19930;-83
2022/05/01 09:03:54;;;;;;;;;;;;;;;;;;4712663;30;20301;-83
2022/05/01 09:06:20;;;;;;;;;;;;;;;;;;4701473;30;20049;-83
2022/05/01 09:08:48;;;;;;;;;;;;;;;;;;4710342;30;19955;-83
2022/05/01 09:14:02;;;;;;;;;;;;;;;;;;4720564;30;20029;-83
2022/05/01 09:16:37;;;;;;;;;;;;;;;;;;4709911;30;20048;-83
2022/05/01 09:19:03;;;;;;;;;;;;;;;;;;4705005;30;19926;-83
2022/05/01 09:21:32;;;;;;;;;;;;;;;;;;4726175;30;19959;-84
2022/05/01 09:24:05;;;;;;;;;;;;;;;;;;4740137;30;19972;-83
2022/05/01 09:26:31;;;;;;;;;;;;;;;;;;4711888;30;19983;-83
2022/05/01 09:29:00;;;;;;;;;;;;;;;;;;4710686;30;20442;-83
2022/05/01 09:31:29;;;;;;;;;;;;;;;;;;4722705;30;20016;-83
2022/05/01 09:34:00;;;;;;;;;;;;;;;;;;4723527;30;19934;-83
2022/05/01 09:36:26;;;;;;;;;;;;;;;;;;4730614;30;19961;-84
2022/05/01 09:38:55;;;;;;;;;;;;;;;;;;4715055;30;19938;-83
2022/05/01 09:41:21;;;;;;;;;;;;;;;;;;4705891;30;20615;-83
2022/05/01 09:43:50;;;;;;;;;;;;;;;;;;4721324;30;19929;-83
2022/05/01 09:46:16;;;;;;;;;;;;;;;;;;4719449;29;19933;-83
2022/05/01 09:48:42;;;;;;;;;;;;;;;;;;4722140;30;19930;-83
2022/05/01 09:51:08;;;;;;;;;;;;;;;;;;4718494;30;19941;-83
2022/05/01 09:53:42;;;;;;;;;;;;;;;;;;4710692;30;20028;-83
2022/05/01 09:56:11;;;;;;;;;;;;;;;;;;4705424;30;20025;-83
2022/05/01 09:58:40;;;;;;;;;;;;;;;;;;4723070;30;19941;-83
2022/05/01 10:01:08;;;;;;;;;;;;;;;;;;4721895;30;19934;-83
2022/05/01 10:03:34;;;;;;;;;;;;;;;;;;4706178;30;20014;-83
2022/05/01 10:06:01;;;;;;;;;;;;;;;;;;4705482;29;19936;-83
2022/05/01 10:08:29;;;;;;;;;;;;;;;;;;4724809;30;20457;-83
2022/05/01 10:10:55;;;;;;;;;;;;;;;;;;4726933;30;19937;-82
2022/05/01 10:13:25;;;;;;;;;;;;;;;;;;4718347;30;19979;-82
2022/05/01 10:15:54;;;;;;;;;;;;;;;;;;4714852;30;19937;-82
2022/05/01 10:18:20;;;;;;;;;;;;;;;;;;4703030;30;19973;-83
2022/05/01 10:20:49;;;;;;;;;;;;;;;;;;4709484;30;20818;-83
2022/05/01 10:23:16;;;;;;;;;;;;;;;;;;4704256;29;19995;-83
2022/05/01 10:25:44;;;;;;;;;;;;;;;;;;4708628;30;19942;-82
2022/05/01 10:28:12;;;;;;;;;;;;;;;;;;4716287;29;20032;-83
2022/05/01 10:33:25;;;;;;;;;;;;;;;;;;4723603;30;20023;-83
2022/05/01 10:35:53;;;;;;;;;;;;;;;;;;4712198;30;19934;-83
2022/05/01 10:38:19;;;;;;;;;;;;;;;;;;4710227;29;20005;-83
2022/05/01 10:40:47;;;;;;;;;;;;;;;;;;4724932;30;19934;-83
2022/05/01 10:43:16;;;;;;;;;;;;;;;;;;4723325;30;20357;-84
2022/05/01 10:45:45;;;;;;;;;;;;;;;;;;4725735;30;19930;-83
2022/05/01 10:48:12;;;;;;;;;;;;;;;;;;4736967;30;20396;-83
2022/05/01 10:50:38;;;;;;;;;;;;;;;;;;4731396;30;19945;-83
2022/05/01 10:53:04;;;;;;;;;;;;;;;;;;4725536;30;19934;-84
2022/05/01 10:55:32;;;;;;;;;;;;;;;;;;4731294;30;19934;-83
2022/05/01 10:58:01;;;;;;;;;;;;;;;;;;4713908;30;19934;-84
2022/05/01 11:00:27;;;;;;;;;;;;;;;;;;4711955;30;19933;-83
2022/05/01 11:02:56;;;;;;;;;;;;;;;;;;4724758;30;20333;-84
2022/05/01 11:05:25;;;;;;;;;;;;;;;;;;4722254;30;20013;-83
2022/05/01 11:07:51;;;;;;;;;;;;;;;;;;4711626;30;19941;-83
2022/05/01 11:10:17;;;;;;;;;;;;;;;;;;4720978;30;21540;-83
2022/05/01 11:12:44;;;;;;;;;;;;;;;;;;4714883;30;19932;-84
2022/05/01 11:15:10;;;;;;;;;;;;;;;;;;4724852;29;20364;-83
2022/05/01 11:17:36;;;;;;;;;;;;;;;;;;4728330;30;19937;-83
2022/05/01 11:20:05;;;;;;;;;;;;;;;;;;4703151;29;19961;-83
2022/05/01 11:22:34;;;;;;;;;;;;;;;;;;4729209;30;19965;-84
2022/05/01 11:25:00;;;;;;;;;;;;;;;;;;4710764;30;20349;-84
2022/05/01 11:27:26;;;;;;;;;;;;;;;;;;4717429;30;19930;-83
2022/05/01 11:29:52;;;;;;;;;;;;;;;;;;4727419;30;20018;-83
2022/05/01 11:32:18;;;;;;;;;;;;;;;;;;4745418;29;19934;-83
2022/05/01 11:34:44;;;;;;;;;;;;;;;;;;4719262;30;19987;-83
2022/05/01 11:37:10;;;;;;;;;;;;;;;;;;4710346;29;20076;-83
2022/05/01 11:39:35;;;;;;;;;;;;;;;;;;4716353;30;19926;-83
2022/05/01 11:42:02;;;;;;;;;;;;;;;;;;4726367;30;19940;-83
2022/05/01 11:44:29;;;;;;;;;;;;;;;;;;4730531;30;19941;-83
2022/05/01 11:46:55;;;;;;;;;;;;;;;;;;4716557;30;20388;-83
2022/05/01 11:49:24;;;;;;;;;;;;;;;;;;4728639;30;20046;-84
2022/05/01 11:51:50;;;;;;;;;;;;;;;;;;4716647;30;20243;-84
2022/05/01 11:54:16;;;;;;;;;;;;;;;;;;4726168;30;19926;-84
2022/05/01 12:02:27;;;;;;;;;;;;;;;;;;4729611;30;19934;-83
2022/05/01 12:04:53;;;;;;;;;;;;;;;;;;4725269;30;20355;-83
2022/05/01 12:07:19;;;;;;;;;;;;;;;;;;4708251;30;20653;-83
2022/05/01 12:09:46;;;;;;;;;;;;;;;;;;4715548;30;19930;-84
2022/05/01 12:12:12;;;;;;;;;;;;;;;;;;4725021;30;19929;-84
2022/05/01 12:14:38;;;;;;;;;;;;;;;;;;4726657;30;20028;-84
2022/05/01 12:17:04;;;;;;;;;;;;;;;;;;4707073;30;20609;-83
2022/05/01 12:19:30;;;;;;;;;;;;;;;;;;4726558;30;19934;-83
2022/05/01 12:21:56;;;;;;;;;;;;;;;;;;4712363;30;19952;-83
2022/05/01 12:24:22;;;;;;;;;;;;;;;;;;4736543;30;19940;-83
2022/05/01 12:26:54;;;;;;;;;;;;;;;;;;4725355;30;19945;-83
2022/05/01 12:29:20;;;;;;;;;;;;;;;;;;4711276;30;20430;-83
2022/05/01 12:31:48;;;;;;;;;;;;;;;;;;4734002;30;19988;-83
2022/05/01 12:34:14;;;;;;;;;;;;;;;;;;4726605;30;20485;-84
2022/05/01 12:36:40;;;;;;;;;;;;;;;;;;4730414;29;19934;-84
2022/05/01 12:39:06;;;;;;;;;;;;;;;;;;4728644;30;19957;-83
2022/05/01 12:44:17;;;;;;;;;;;;;;;;;;4726458;30;20021;-83
2022/05/01 12:46:43;;;;;;;;;;;;;;;;;;4729423;30;20409;-84
2022/05/01 12:49:08;;;;;;;;;;;;;;;;;;4725166;30;19940;-84
2022/05/01 12:51:35;;;;;;;;;;;;;;;;;;4714548;30;20012;-83
2022/05/01 12:54:01;;;;;;;;;;;;;;;;;;4727544;30;20099;-83
2022/05/01 12:56:27;;;;;;;;;;;;;;;;;;4745235;30;20020;-83
2022/05/01 12:58:53;;;;;;;;;;;;;;;;;;4741442;30;19934;-83
2022/05/01 13:01:19;;;;;;;;;;;;;;;;;;4721310;29;19941;-83
2022/05/01 13:03:45;;;;;;;;;;;;;;;;;;4746006;30;20458;-83
2022/05/01 13:06:13;;;;;;;;;;;;;;;;;;4742348;29;20393;-83
2022/05/01 13:08:39;;;;;;;;;;;;;;;;;;4739387;30;20405;-82
2022/05/01 13:11:04;;;;;;;;;;;;;;;;;;4723585;30;20050;-83
2022/05/01 13:13:30;;;;;;;;;;;;;;;;;;4728008;30;19937;-83
2022/05/01 13:15:59;;;;;;;;;;;;;;;;;;4729474;30;19926;-83
2022/05/01 13:18:26;;;;;;;;;;;;;;;;;;4723246;30;19950;-83
2022/05/01 13:20:51;;;;;;;;;;;;;;;;;;4722201;30;19936;-83
2022/05/01 13:23:18;;;;;;;;;;;;;;;;;;4717950;30;19951;-83
2022/05/01 13:25:44;;;;;;;;;;;;;;;;;;4723142;30;19955;-83
2022/05/01 13:28:10;;;;;;;;;;;;;;;;;;4738005;29;19929;-83
2022/05/01 13:30:36;;;;;;;;;;;;;;;;;;4743963;30;19974;-83
2022/05/01 13:33:02;;;;;;;;;;;;;;;;;;4712936;30;19930;-83
2022/05/01 13:35:28;;;;;;;;;;;;;;;;;;4729396;30;21195;-83
2022/05/01 13:37:54;;;;;;;;;;;;;;;;;;4728309;30;20309;-82
2022/05/01 13:45:49;;;;;;;;;;;;;;;;;;4721706;30;20421;-82
2022/05/01 13:48:16;;;;;;;;;;;;;;;;;;4722717;30;19930;-83
2022/05/01 13:50:42;;;;;;;;;;;;;;;;;;4729870;30;19934;-83
2022/05/01 13:53:13;;;;;;;;;;;;;;;;;;4727602;30;19941;-83
2022/05/01 13:55:39;;;;;;;;;;;;;;;;;;4713498;30;19937;-83
2022/05/01 13:58:06;;;;;;;;;;;;;;;;;;4702324;30;19941;-83
2022/05/01 14:00:33;;;;;;;;;;;;;;;;;;4738740;30;19937;-83
2022/05/01 14:03:00;;;;;;;;;;;;;;;;;;4716923;30;19964;-84
2022/05/01 14:05:26;;;;;;;;;;;;;;;;;;4743506;30;21201;-83
2022/05/01 14:07:52;;;;;;;;;;;;;;;;;;4741532;30;20363;-84
2022/05/01 14:10:18;;;;;;;;;;;;;;;;;;4709480;30;20565;-84
2022/05/01 14:12:46;;;;;;;;;;;;;;;;;;4739949;30;19938;-83
2022/05/01 14:15:13;;;;;;;;;;;;;;;;;;4737443;30;19934;-82
2022/05/01 14:17:42;;;;;;;;;;;;;;;;;;4740119;29;19948;-83
2022/05/01 14:20:08;;;;;;;;;;;;;;;;;;4734466;30;19929;-83
2022/05/01 14:22:34;;;;;;;;;;;;;;;;;;4717469;30;20434;-83
2022/05/01 14:25:00;;;;;;;;;;;;;;;;;;4705162;30;20791;-84
2022/05/01 14:27:26;;;;;;;;;;;;;;;;;;4739875;29;19979;-83
2022/05/01 14:29:52;;;;;;;;;;;;;;;;;;4736293;30;20417;-84
2022/05/01 14:32:28;;;;;;;;;;;;;;;;;;;;;
2022/05/01 14:35:00;;;;;;;;;;;;;;;;;;4720788;30;19934;-84
2022/05/01 14:37:31;;;;;;;;;;;;;;;;;;4721269;30;19937;-83
2022/05/01 14:43:10;;;;;;;;;;;;;;;;;;;;;
2022/05/01 14:45:54;;;;;;;;;;;;;;;;;;4692584;30;19996;-82
2022/05/01 14:48:26;;;;;;;;;;;;;;;;;;4708659;30;20473;-83
2022/05/01 14:51:06;;;;;;;;;;;;;;;;;;4728380;30;19945;-83
2022/05/01 14:53:46;;;;;;;;;;;;;;;;;;4711392;30;19926;-83
2022/05/01 14:56:33;;;;;;;;;;;;;;;;;;4729809;30;19973;-84
2022/05/01 15:07:31;;;;;;;;;;;;;;;;;;4730959;30;20032;-83
2022/05/01 15:10:04;;;;;;;;;;;;;;;;;;4725522;30;20040;-83
2022/05/01 15:12:30;;;;;;;;;;;;;;;;;;4711291;30;20722;-83
2022/05/01 15:15:11;;;;;;;;;;;;;;;;;;4720446;30;19941;-83
2022/05/01 15:18:00;;;;;;;;;;;;;;;;;;4743730;30;19978;-83
2022/05/01 15:21:00;;;;;;;;;;;;;;;;;;4695373;30;19942;-83
2022/05/01 15:23:37;;;;;;;;;;;;;;;;;;4684529;30;19931;-83
2022/05/01 15:26:12;;;;;;;;;;;;;;;;;;4652023;30;19938;-83
2022/05/01 15:28:50;;;;;;;;;;;;;;;;;;4628142;30;19943;-83
2022/05/01 15:31:34;;;;;;;;;;;;;;;;;;4622448;30;20593;-83
2022/05/01 15:34:06;;;;;;;;;;;;;;;;;;4625028;30;19936;-84
2022/05/01 15:36:35;;;;;;;;;;;;;;;;;;4630534;30;20125;-84
2022/05/01 15:39:01;;;;;;;;;;;;;;;;;;4611025;30;19943;-84
2022/05/01 15:41:35;;;;;;;;;;;;;;;;;;4631292;30;19944;-83
2022/05/01 15:44:12;;;;;;;;;;;;;;;;;;4609421;30;20211;-84
2022/05/01 15:55:29;;;;;;;;;;;;;;;;;;;;;
2022/05/01 15:58:14;;;;;;;;;;;;;;;;;;4702447;30;19931;-84
2022/05/01 16:04:31;;;;;;;;;;;;;;;;;;4651490;30;19954;-83
2022/05/01 16:06:50;;;;;;;;;;;;;;;;;;4674863;30;19931;-83
2022/05/01 16:09:31;;;;;;;;;;;;;;;;;;4662836;30;19940;-83
2022/05/01 16:12:00;;;;;;;;;;;;;;;;;;4665651;30;20362;-83
2022/05/01 16:14:31;;;;;;;;;;;;;;;;;;4679512;30;20388;-83
2022/05/01 16:17:23;;;;;;;;;;;;;;;;;;;;;
2022/05/01 16:22:53;;;;;;;;;;;;;;;;;;4641193;30;19970;-83
2022/05/01 16:25:44;;;;;;;;;;;;;;;;;;;;;
2022/05/01 16:28:28;;;;;;;;;;;;;;;;;;4628343;30;20375;-83
2022/05/01 16:31:07;;;;;;;;;;;;;;;;;;4630862;30;19939;-84
2022/05/01 16:33:46;;;;;;;;;;;;;;;;;;;;;
2022/05/01 16:39:07;;;;;;;;;;;;;;;;;;4652404;30;19928;-84
2022/05/01 16:41:40;;;;;;;;;;;;;;;;;;4649154;30;19935;-83
2022/05/01 16:47:08;;;;;;;;;;;;;;;;;;4644804;30;19927;-83
2022/05/01 16:52:45;;;;;;;;;;;;;;;;;;4692702;30;19949;-83
2022/05/01 16:55:16;;;;;;;;;;;;;;;;;;4688944;30;19926;-83
2022/05/01 16:57:47;;;;;;;;;;;;;;;;;;4684815;30;20058;-83
2022/05/01 17:00:19;;;;;;;;;;;;;;;;;;4659377;30;20041;-83
2022/05/01 17:02:58;;;;;;;;;;;;;;;;;;;;;
2022/05/01 17:05:33;;;;;;;;;;;;;;;;;;4687200;30;20088;-84
2022/05/01 17:08:10;;;;;;;;;;;;;;;;;;4669039;30;19971;-83
2022/05/01 17:10:44;;;;;;;;;;;;;;;;;;4661152;30;19939;-83
2022/05/01 17:13:18;;;;;;;;;;;;;;;;;;4662108;30;19935;-83
2022/05/01 17:18:45;;;;;;;;;;;;;;;;;;4668136;30;19981;-83
2022/05/01 17:21:17;;;;;;;;;;;;;;;;;;4661368;30;20465;-83
2022/05/01 17:23:48;;;;;;;;;;;;;;;;;;4672904;30;20403;-83
2022/05/01 17:26:23;;;;;;;;;;;;;;;;;;4657377;30;19927;-83
2022/05/01 17:28:58;;;;;;;;;;;;;;;;;;4674893;30;19971;-83
2022/05/01 17:31:24;;;;;;;;;;;;;;;;;;4686890;30;19934;-83
2022/05/01 17:33:58;;;;;;;;;;;;;;;;;;4686783;30;19942;-83
2022/05/01 17:36:26;;;;;;;;;;;;;;;;;;4702182;30;19930;-83
2022/05/01 17:38:58;;;;;;;;;;;;;;;;;;4704767;30;21060;-83
2022/05/01 17:41:36;;;;;;;;;;;;;;;;;;4710201;30;19995;-83
2022/05/01 17:44:11;;;;;;;;;;;;;;;;;;4732095;30;20013;-83
2022/05/01 17:46:56;;;;;;;;;;;;;;;;;;4720643;30;19926;-83
2022/05/01 17:50:00;;;;;;;;;;;;;;;;;;4737656;30;19985;-83
2022/05/01 17:52:54;;;;;;;;;;;;;;;;;;4735836;30;20538;-83
2022/05/01 17:55:36;;;;;;;;;;;;;;;;;;4737844;29;20355;-83
2022/05/01 17:58:10;;;;;;;;;;;;;;;;;;4717161;30;19942;-83
2022/05/01 18:00:50;;;;;;;;;;;;;;;;;;4722715;30;19930;-83
2022/05/01 18:03:39;;;;;;;;;;;;;;;;;;;;;
2022/05/01 18:12:13;;;;;;;;;;;;;;;;;;4717459;30;19926;-83
2022/05/01 18:14:43;;;;;;;;;;;;;;;;;;4737368;30;20971;-83
2022/05/01 18:17:12;;;;;;;;;;;;;;;;;;4720258;30;19929;-83
2022/05/01 18:22:43;;;;;;;;;;;;;;;;;;4679247;30;19976;-83
2022/05/01 18:25:26;;;;;;;;;;;;;;;;;;4673094;30;19979;-83
2022/05/01 18:27:55;;;;;;;;;;;;;;;;;;4671700;30;19989;-84
2022/05/01 18:33:19;;;;;;;;;;;;;;;;;;4659663;30;19935;-83
2022/05/01 18:35:58;;;;;;;;;;;;;;;;;;4668328;30;19933;-83
2022/05/01 18:38:41;;;;;;;;;;;;;;;;;;4675196;30;19927;-83